createdAt,value
2024-04-18T00:01:56.349Z,101627.06
2024-04-18T00:04:26.187Z,101631.53
2024-04-18T00:06:57.918Z,101634.25
2024-04-18T00:09:24.558Z,101631.78
2024-04-18T00:11:56.174Z,101640.59
2024-04-18T00:14:22.796Z,101639.81
2024-04-18T00:16:51.786Z,101641.63
2024-04-18T00:19:21.632Z,101644.28
2024-04-18T00:21:48.330Z,101646.06
2024-04-18T00:24:14.996Z,101640.91
2024-04-18T00:26:43.891Z,101649.59
2024-04-18T00:29:10.492Z,101646.91
2024-04-18T00:31:37.146Z,101650.38
2024-04-18T00:34:03.818Z,101656.50
2024-04-18T00:36:32.721Z,101659.97
2024-04-18T00:39:01.599Z,101659.97
2024-04-18T00:41:28.314Z,101650.34
2024-04-18T00:43:58.907Z,101658.19
2024-04-18T00:46:28.473Z,101655.63
2024-04-18T00:48:58.944Z,101655.69
2024-04-18T00:51:28.318Z,101663.63
2024-04-18T00:54:00.416Z,101662.75
2024-04-18T00:56:27.286Z,101665.44
2024-04-18T00:58:54.163Z,101666.41
2024-04-18T01:01:22.598Z,101668.16
2024-04-18T01:03:50.561Z,101667.38
2024-04-18T01:06:19.475Z,101668.34
2024-04-18T01:08:46.138Z,101669.31
2024-04-18T01:11:12.823Z,101672.03
2024-04-18T01:13:39.741Z,101673.03
2024-04-18T01:16:06.743Z,101680.09
2024-04-18T01:18:33.580Z,101678.44
2024-04-18T01:21:00.605Z,101683.75
2024-04-18T01:23:30.776Z,101689.09
2024-04-18T01:25:59.877Z,101688.28
2024-04-18T01:28:26.499Z,101694.50
2024-04-18T01:30:53.204Z,101695.53
2024-04-18T01:33:20.630Z,101690.44
2024-04-18T01:35:49.272Z,101694.97
2024-04-18T01:38:15.847Z,101699.50
2024-04-18T01:40:42.549Z,101702.19
2024-04-18T01:43:11.539Z,101701.50
2024-04-18T01:45:38.153Z,101702.56
2024-04-18T01:48:05.422Z,101710.50
2024-04-18T01:50:34.361Z,101712.34
2024-04-18T01:53:03.277Z,101711.63
2024-04-18T01:55:29.942Z,101710.06
2024-04-18T01:58:01.132Z,101722.28
2024-04-18T02:00:27.779Z,101719.69
2024-04-18T02:02:57.561Z,101718.06
2024-04-18T02:05:28.723Z,101724.28
2024-04-18T02:07:55.346Z,101731.34
2024-04-18T02:10:22.161Z,101728.88
2024-04-18T02:12:48.842Z,101727.25
2024-04-18T02:15:15.637Z,101735.19
2024-04-18T02:17:42.407Z,101730.06
2024-04-18T02:20:09.831Z,101734.53
2024-04-18T02:22:36.452Z,101732.88
2024-04-18T02:25:10.637Z,101742.53
2024-04-18T02:27:45.777Z,101746.03
2024-04-18T02:30:12.978Z,101748.72
2024-04-18T02:32:40.229Z,101750.53
2024-04-18T02:35:07.122Z,101748.88
2024-04-18T02:37:33.798Z,101753.34
2024-04-18T02:40:05.290Z,101751.69
2024-04-18T02:42:32.075Z,101754.41
2024-04-18T02:45:01.446Z,101750.13
2024-04-18T02:47:28.803Z,101755.41
2024-04-18T02:49:55.454Z,101753.78
2024-04-18T02:52:22.105Z,101759.97
2024-04-18T02:54:53.379Z,101763.56
2024-04-18T02:57:20.039Z,101768.06
2024-04-18T02:59:48.905Z,101763.78
2024-04-18T03:02:17.752Z,101772.63
2024-04-18T03:04:46.752Z,101783.09
2024-04-18T03:07:13.425Z,101781.31
2024-04-18T03:09:42.269Z,101783.88
2024-04-18T03:12:09.154Z,101785.53
2024-04-18T03:14:35.766Z,101790.56
2024-04-18T03:17:02.412Z,101790.38
2024-04-18T03:19:31.319Z,101796.38
2024-04-18T03:22:02.563Z,101804.06
2024-04-18T03:24:29.338Z,101804.97
2024-04-18T03:26:58.524Z,101799.78
2024-04-18T03:29:28.205Z,101793.81
2024-04-18T03:31:54.907Z,101800.75
2024-04-18T03:34:21.553Z,101805.97
2024-04-18T03:36:50.817Z,101802.38
2024-04-18T03:39:17.579Z,101803.25
2024-04-18T03:41:49.055Z,101810.22
2024-04-18T03:44:23.110Z,101809.50
2024-04-18T03:46:49.733Z,101808.66
2024-04-18T03:49:16.425Z,101813.88
2024-04-18T03:51:43.072Z,101813.00
2024-04-18T03:54:09.755Z,101822.56
2024-04-18T03:56:36.686Z,101822.56
2024-04-18T03:59:03.362Z,101824.34
2024-04-18T04:01:31.006Z,101827.84
2024-04-18T04:03:58.262Z,101830.66
2024-04-18T04:06:25.075Z,101825.59
2024-04-18T04:08:54.188Z,101832.72
2024-04-18T04:11:21.611Z,101831.94
2024-04-18T04:13:48.291Z,101836.31
2024-04-18T04:16:17.208Z,101843.44
2024-04-18T04:18:44.623Z,101839.16
2024-04-18T04:21:11.309Z,101842.69
2024-04-18T04:23:38.263Z,101843.72
2024-04-18T04:26:05.080Z,101851.69
2024-04-18T04:28:31.718Z,101848.28
2024-04-18T04:31:03.113Z,101859.63
2024-04-18T04:33:35.047Z,101864.97
2024-04-18T04:36:01.682Z,101858.91
2024-04-18T04:38:30.478Z,101871.22
2024-04-18T04:40:57.196Z,101871.34
2024-04-18T04:43:28.417Z,101870.66
2024-04-18T04:45:58.833Z,101873.31
2024-04-18T04:48:25.732Z,101875.03
2024-04-18T04:50:58.505Z,101885.41
2024-04-18T04:53:25.769Z,101882.84
2024-04-18T04:55:52.453Z,101890.72
2024-04-18T04:58:21.472Z,101895.91
2024-04-18T05:00:50.639Z,101895.91
2024-04-18T05:03:17.392Z,101905.41
2024-04-18T05:05:44.280Z,101901.00
2024-04-18T05:08:11.149Z,101898.41
2024-04-18T05:10:47.309Z,101908.84
2024-04-18T05:13:15.451Z,101909.66
2024-04-18T05:15:42.491Z,101918.34
2024-04-18T05:18:12.651Z,101910.44
2024-04-18T05:20:39.670Z,101921.63
2024-04-18T05:23:08.373Z,101918.84
2024-04-18T05:25:37.482Z,101928.22
2024-04-18T05:28:11.797Z,101929.91
2024-04-18T05:31:02.070Z,101931.50
2024-04-18T05:33:29.530Z,101946.16
2024-04-18T05:35:56.321Z,101949.44
2024-04-18T05:38:23.218Z,101955.19
2024-04-18T05:40:53.375Z,101952.19
2024-04-18T05:43:20.818Z,101962.97
2024-04-18T05:45:51.045Z,101963.44
2024-04-18T05:48:21.559Z,101962.94
2024-04-18T05:50:48.284Z,101960.66
2024-04-18T05:53:17.959Z,101959.38
2024-04-18T05:55:44.770Z,101957.41
2024-04-18T05:58:11.400Z,101956.41
2024-04-18T06:00:40.393Z,101972.88
2024-04-18T06:03:07.284Z,101966.72
2024-04-18T06:05:34.410Z,101962.28
2024-04-18T06:08:01.075Z,101969.09
2024-04-18T06:10:30.752Z,101974.19
2024-04-18T06:12:59.922Z,101978.19
2024-04-18T06:15:29.090Z,101974.28
2024-04-18T06:17:58.101Z,101981.00
2024-04-18T06:20:30.829Z,101989.34
2024-04-18T06:22:59.932Z,101989.06
2024-04-18T06:25:27.287Z,101987.81
2024-04-18T06:27:53.959Z,101992.59
2024-04-18T06:30:23.027Z,101999.09
2024-04-18T06:32:49.968Z,102002.13
2024-04-18T06:35:18.903Z,102007.00
2024-04-18T06:37:45.699Z,102012.03
2024-04-18T06:40:17.022Z,102016.25
2024-04-18T06:42:43.736Z,102021.34
2024-04-18T06:45:10.477Z,102013.28
2024-04-18T06:47:37.187Z,102015.69
2024-04-18T06:50:03.975Z,102015.22
2024-04-18T06:52:38.174Z,102026.88
2024-04-18T06:55:07.336Z,102026.38
2024-04-18T06:57:34.021Z,102029.44
2024-04-18T07:00:03.153Z,102035.16
2024-04-18T07:02:29.946Z,102034.72
2024-04-18T07:04:56.651Z,102037.00
2024-04-18T07:07:26.496Z,102035.00
2024-04-18T07:09:53.144Z,102037.28
2024-04-18T07:12:19.865Z,102037.78
2024-04-18T07:14:46.574Z,102040.00
2024-04-18T07:17:13.277Z,102042.19
2024-04-18T07:19:40.033Z,102047.13
2024-04-18T07:22:06.702Z,102040.47
2024-04-18T07:24:35.753Z,102045.13
2024-04-18T07:27:02.875Z,102056.09
2024-04-18T07:29:29.584Z,102054.72
2024-04-18T07:31:58.709Z,102061.03
2024-04-18T07:34:25.526Z,102063.09
2024-04-18T07:36:54.578Z,102066.84
2024-04-18T07:39:21.422Z,102063.16
2024-04-18T07:41:48.212Z,102067.06
2024-04-18T07:44:18.744Z,102066.78
2024-04-18T07:46:49.470Z,102072.66
2024-04-18T07:49:16.136Z,102070.09
2024-04-18T07:51:46.049Z,102070.03
2024-04-18T07:54:12.926Z,102070.53
2024-04-18T07:56:39.978Z,102070.63
2024-04-18T07:59:10.436Z,102068.75
2024-04-18T08:01:39.279Z,102071.38
2024-04-18T08:04:34.355Z,102074.25
2024-04-18T08:07:02.572Z,102080.56
2024-04-18T08:12:23.888Z,102076.38
2024-04-18T08:14:57.856Z,102082.59
2024-04-18T08:17:27.763Z,102079.41
2024-04-18T08:19:54.434Z,102080.41
2024-04-18T08:22:23.442Z,102082.50
2024-04-18T08:24:51.070Z,102081.88
2024-04-18T08:27:17.859Z,102088.28
2024-04-18T08:29:44.505Z,102091.28
2024-04-18T08:32:11.685Z,102093.84
2024-04-18T08:34:41.114Z,102096.78
2024-04-18T08:37:09.752Z,102092.44
2024-04-18T08:39:38.750Z,102095.06
2024-04-18T08:42:08.026Z,102095.31
2024-04-18T08:44:34.688Z,102101.53
2024-04-18T08:47:02.331Z,102109.84
2024-04-18T08:49:32.882Z,102101.53
2024-04-18T08:52:00.200Z,102107.19
2024-04-18T08:54:31.129Z,102104.94
2024-04-18T08:57:01.163Z,102107.41
2024-04-18T08:59:29.269Z,102101.06
2024-04-18T09:01:56.226Z,102109.94
2024-04-18T09:04:27.696Z,102114.28
2024-04-18T09:06:54.341Z,102106.94
2024-04-18T09:09:23.681Z,102110.69
2024-04-18T09:11:50.393Z,102108.03
2024-04-18T09:14:19.359Z,102110.78
2024-04-18T09:16:50.711Z,102110.50
2024-04-18T09:19:19.356Z,102105.97
2024-04-18T09:21:48.555Z,102121.75
2024-04-18T09:24:17.507Z,102117.22
2024-04-18T09:26:44.289Z,102114.63
2024-04-18T09:29:10.927Z,102118.69
2024-04-18T09:31:43.517Z,102109.88
2024-04-18T09:34:15.812Z,102110.59
2024-04-18T09:36:46.328Z,102110.22
2024-04-18T09:39:29.510Z,102106.75
2024-04-18T09:42:11.350Z,102111.94
2024-04-18T09:44:46.432Z,102113.84
2024-04-18T09:47:14.818Z,102110.97
2024-04-18T09:49:42.425Z,102109.91
2024-04-18T09:52:10.430Z,102109.28
2024-04-18T09:54:38.578Z,102109.25
2024-04-18T09:57:06.608Z,102105.47
2024-04-18T09:59:36.315Z,102105.69
2024-04-18T10:02:06.098Z,102109.22
2024-04-18T10:04:35.780Z,102111.44
2024-04-18T10:07:09.195Z,102103.00
2024-04-18T10:09:42.211Z,102112.28
2024-04-18T10:12:13.147Z,102107.25
2024-04-18T10:14:39.862Z,102111.84
2024-04-18T10:17:08.818Z,102118.56
2024-04-18T10:19:35.598Z,102114.09
2024-04-18T10:22:16.664Z,102116.91
2024-04-18T10:24:51.917Z,102104.91
2024-04-18T10:27:21.693Z,102116.22
2024-04-18T10:30:01.136Z,102106.44
2024-04-18T10:32:32.471Z,102115.81
2024-04-18T10:35:00.402Z,102116.31
2024-04-18T10:37:29.536Z,102109.72
2024-04-18T10:40:00.551Z,102123.94
2024-04-18T10:42:27.434Z,102122.34
2024-04-18T10:44:56.605Z,102123.16
2024-04-18T10:47:23.645Z,102113.84
2024-04-18T10:49:50.766Z,102123.53
2024-04-18T10:52:20.392Z,102114.31
2024-04-18T10:54:50.029Z,102112.88
2024-04-18T10:57:16.808Z,102119.69
2024-04-18T10:59:48.423Z,102114.63
2024-04-18T11:02:15.617Z,102116.31
2024-04-18T11:04:42.840Z,102112.56
2024-04-18T11:07:09.830Z,102119.53
2024-04-18T11:09:40.431Z,102119.16
2024-04-18T11:12:07.955Z,102114.56
2024-04-18T11:14:36.897Z,102113.75
2024-04-18T11:17:03.686Z,102119.09
2024-04-18T11:19:33.501Z,102115.63
2024-04-18T11:22:06.828Z,102118.53
2024-04-18T11:24:34.469Z,102107.25
2024-04-18T11:27:08.891Z,102104.53
2024-04-18T11:29:36.507Z,102105.91
2024-04-18T11:32:07.299Z,102103.31
2024-04-18T11:34:36.996Z,102103.53
2024-04-18T11:37:04.754Z,102111.88
2024-04-18T11:39:33.986Z,102104.69
2024-04-18T11:42:03.371Z,102102.69
2024-04-18T11:44:33.954Z,102102.22
2024-04-18T11:47:00.958Z,102106.13
2024-04-18T11:49:27.781Z,102103.25
2024-04-18T11:51:57.905Z,102105.97
2024-04-18T11:54:27.737Z,102112.66
2024-04-18T11:56:55.237Z,102110.69
2024-04-18T11:59:22.454Z,102107.03
2024-04-18T12:01:49.158Z,102095.75
2024-04-18T12:04:18.250Z,102100.88
2024-04-18T12:06:46.761Z,102101.97
2024-04-18T12:09:13.455Z,102110.19
2024-04-18T12:11:40.152Z,102108.03
2024-04-18T12:14:08.661Z,102104.47
2024-04-18T12:16:38.204Z,102112.56
2024-04-18T12:19:04.860Z,102101.00
2024-04-18T12:21:31.634Z,102111.31
2024-04-18T12:23:58.322Z,102115.53
2024-04-18T12:26:27.485Z,102114.78
2024-04-18T12:28:56.468Z,102123.03
2024-04-18T12:31:26.166Z,102116.41
2024-04-18T12:33:52.990Z,102118.50
2024-04-18T12:36:23.332Z,102115.34
2024-04-18T12:38:50.120Z,102107.09
2024-04-18T12:41:16.793Z,102102.19
2024-04-18T12:43:45.882Z,102109.38
2024-04-18T12:46:22.093Z,102107.16
2024-04-18T12:48:52.052Z,102107.16
2024-04-18T12:51:21.214Z,102111.53
2024-04-18T12:53:47.865Z,102111.75
2024-04-18T12:56:20.862Z,102100.38
2024-04-18T12:58:47.570Z,102102.66
2024-04-18T13:01:14.641Z,102104.38
2024-04-18T13:03:45.375Z,102105.25
2024-04-18T13:06:12.452Z,102110.31
2024-04-18T13:08:41.354Z,102106.56
2024-04-18T13:11:10.436Z,102109.84
2024-04-18T13:13:37.183Z,102115.19
2024-04-18T13:16:06.674Z,102113.22
2024-04-18T13:18:33.420Z,102108.50
2024-04-18T13:21:00.210Z,102105.28
2024-04-18T13:23:26.946Z,102102.13
2024-04-18T13:25:54.748Z,102106.00
2024-04-18T13:28:26.040Z,102094.94
2024-04-18T13:30:52.770Z,102102.91
2024-04-18T13:33:19.611Z,102097.03
2024-04-18T13:35:46.670Z,102096.19
2024-04-18T13:38:13.286Z,102099.41
2024-04-18T13:40:42.199Z,102099.06
2024-04-18T13:43:11.323Z,102102.22
2024-04-18T13:45:38.210Z,102102.28
2024-04-18T13:48:05.647Z,102105.94
2024-04-18T13:50:34.895Z,102096.75
2024-04-18T13:53:01.491Z,102101.00
2024-04-18T13:55:28.601Z,102098.69
2024-04-18T13:57:57.956Z,102094.31
2024-04-18T14:00:27.778Z,102097.34
2024-04-18T14:02:54.556Z,102102.78
2024-04-18T14:05:21.865Z,102092.47
2024-04-18T14:07:50.769Z,102090.78
2024-04-18T14:10:17.608Z,102088.63
2024-04-18T14:12:44.276Z,102085.88
2024-04-18T14:15:36.884Z,102084.19
2024-04-18T14:18:23.575Z,102080.16
2024-04-18T14:20:55.019Z,102078.38
2024-04-18T14:23:21.669Z,102086.72
2024-04-18T14:25:48.263Z,102088.56
2024-04-18T14:28:24.194Z,102081.28
2024-04-18T14:31:03.145Z,102087.44
2024-04-18T14:33:32.418Z,102082.34
2024-04-18T14:36:01.544Z,102079.69
2024-04-18T14:38:30.579Z,102078.34
2024-04-18T14:41:06.176Z,102079.72
2024-04-18T14:43:38.429Z,102073.41
2024-04-18T14:46:05.203Z,102077.75
2024-04-18T14:48:34.651Z,102072.97
2024-04-18T14:51:06.289Z,102071.13
2024-04-18T14:53:35.290Z,102072.28
2024-04-18T14:56:01.971Z,102081.16
2024-04-18T14:58:30.897Z,102070.75
2024-04-18T15:00:57.673Z,102069.69
2024-04-18T15:03:29.288Z,102068.41
2024-04-18T15:05:57.465Z,102062.69
2024-04-18T15:08:24.512Z,102060.41
2024-04-18T15:10:51.622Z,102059.34
2024-04-18T15:13:18.342Z,102058.84
2024-04-18T15:15:47.563Z,102055.34
2024-04-18T15:18:15.008Z,102045.69
2024-04-18T15:20:41.963Z,102058.75
2024-04-18T15:23:09.219Z,102059.88
2024-04-18T15:25:38.361Z,102060.72
2024-04-18T15:28:05.835Z,102064.91
2024-04-18T15:30:35.136Z,102069.69
2024-04-18T15:33:04.453Z,102068.66
2024-04-18T15:35:31.372Z,102071.06
2024-04-18T15:37:58.074Z,102078.09
2024-04-18T15:40:24.888Z,102073.13
2024-04-18T15:42:54.059Z,102079.22
2024-04-18T15:45:20.896Z,102065.25
2024-04-18T15:47:52.220Z,102059.84
2024-04-18T15:50:24.570Z,102060.34
2024-04-18T15:52:51.330Z,102055.81
2024-04-18T15:55:21.894Z,102065.38
2024-04-18T15:57:51.748Z,102062.88
2024-04-18T16:00:18.776Z,102069.47
2024-04-18T16:02:51.597Z,102069.97
2024-04-18T16:05:22.322Z,102061.50
2024-04-18T16:07:51.205Z,102064.22
2024-04-18T16:10:17.817Z,102059.41
2024-04-18T16:12:44.984Z,102064.19
2024-04-18T16:15:11.635Z,102060.03
2024-04-18T16:17:38.338Z,102056.25
2024-04-18T16:20:05.323Z,102052.22
2024-04-18T16:22:32.193Z,102051.66
2024-04-18T16:24:58.845Z,102048.34
2024-04-18T16:27:28.018Z,102058.31
2024-04-18T16:29:57.158Z,102054.06
2024-04-18T16:32:26.068Z,102049.06
2024-04-18T16:34:55.092Z,102055.63
2024-04-18T16:37:23.673Z,102057.38
2024-04-18T16:39:51.436Z,102060.81
2024-04-18T16:42:18.143Z,102057.88
2024-04-18T16:44:44.863Z,102056.28
2024-04-18T16:47:11.579Z,102053.75
2024-04-18T16:49:43.157Z,102043.53
2024-04-18T16:52:10.949Z,102060.88
2024-04-18T16:54:45.654Z,102055.84
2024-04-18T16:57:12.358Z,102046.69
2024-04-18T16:59:41.255Z,102049.13
2024-04-18T17:02:07.947Z,102049.00
2024-04-18T17:04:36.388Z,102047.13
2024-04-18T17:07:05.539Z,102050.63
2024-04-18T17:09:34.726Z,102049.41
2024-04-18T17:12:01.912Z,102041.75
2024-04-18T17:14:28.688Z,102033.91
2024-04-18T17:16:55.366Z,102022.91
2024-04-18T17:19:25.102Z,102029.38
2024-04-18T17:21:54.373Z,102022.50
2024-04-18T17:24:28.404Z,102026.34
2024-04-18T17:26:55.078Z,102020.00
2024-04-18T17:29:21.760Z,102017.81
2024-04-18T17:31:48.728Z,102012.88
2024-04-18T17:34:15.527Z,102017.94
2024-04-18T17:36:42.310Z,102019.06
2024-04-18T17:39:09.453Z,102022.06
2024-04-18T17:41:36.348Z,102016.28
2024-04-18T17:44:03.205Z,102012.13
2024-04-18T17:46:29.909Z,102006.03
2024-04-18T17:48:59.097Z,102000.09
2024-04-18T17:51:30.590Z,101992.69
2024-04-18T17:53:57.235Z,101996.53
2024-04-18T17:56:26.838Z,102002.00
2024-04-18T17:58:57.042Z,101999.97
2024-04-18T18:01:23.736Z,101992.47
2024-04-18T18:03:52.768Z,101989.94
2024-04-18T18:06:19.547Z,101993.66
2024-04-18T18:08:46.211Z,101998.44
2024-04-18T18:11:12.907Z,101990.75
2024-04-18T18:13:42.581Z,101986.66
2024-04-18T18:16:09.259Z,101993.94
2024-04-18T18:18:40.083Z,101987.44
2024-04-18T18:21:09.412Z,101989.38
2024-04-18T18:23:40.931Z,101988.63
2024-04-18T18:26:07.622Z,101987.06
2024-04-18T18:28:35.166Z,101981.28
2024-04-18T18:31:01.886Z,101978.03
2024-04-18T18:33:33.451Z,101982.78
2024-04-18T18:36:00.185Z,101981.31
2024-04-18T18:38:26.858Z,101979.91
2024-04-18T18:40:53.499Z,101977.59
2024-04-18T18:43:22.458Z,101972.56
2024-04-18T18:45:52.382Z,101964.91
2024-04-18T18:48:23.923Z,101967.94
2024-04-18T18:50:52.852Z,101975.31
2024-04-18T18:53:19.506Z,101977.25
2024-04-18T18:55:47.153Z,101971.38
2024-04-18T18:58:13.867Z,101975.09
2024-04-18T19:00:43.055Z,101970.06
2024-04-18T19:03:10.360Z,101965.03
2024-04-18T19:05:50.770Z,101966.97
2024-04-18T19:08:22.121Z,101964.59
2024-04-18T19:10:48.780Z,101965.66
2024-04-18T19:13:15.412Z,101971.06
2024-04-18T19:15:43.981Z,101972.16
2024-04-18T19:18:13.113Z,101968.81
2024-04-18T19:20:42.128Z,101958.38
2024-04-18T19:23:10.934Z,101960.22
2024-04-18T19:25:39.961Z,101960.38
2024-04-18T19:28:08.362Z,101950.84
2024-04-18T19:30:39.750Z,101943.16
2024-04-18T19:33:06.857Z,101944.09
2024-04-18T19:35:36.150Z,101938.97
2024-04-18T19:38:05.006Z,101938.22
2024-04-18T19:40:31.935Z,101933.94
2024-04-18T19:42:58.646Z,101934.09
2024-04-18T19:45:27.924Z,101928.91
2024-04-18T19:47:54.587Z,101927.25
2024-04-18T19:50:23.630Z,101923.00
2024-04-18T19:52:50.392Z,101917.88
2024-04-18T19:55:17.351Z,101917.97
2024-04-18T19:57:46.595Z,101906.66
2024-04-18T20:00:16.838Z,101908.50
2024-04-18T20:02:44.783Z,101905.09
2024-04-18T20:05:11.372Z,101909.59
2024-04-18T20:07:38.045Z,101893.00
2024-04-18T20:10:07.468Z,101889.69
2024-04-18T20:12:34.127Z,101896.72
2024-04-18T20:15:03.198Z,101898.50
2024-04-18T20:17:29.884Z,101885.41
2024-04-18T20:19:56.623Z,101882.78
2024-04-18T20:22:25.728Z,101876.75
2024-04-18T20:24:52.459Z,101871.47
2024-04-18T20:27:19.731Z,101862.72
2024-04-18T20:29:49.111Z,101852.28
2024-04-18T20:32:21.012Z,101855.00
2024-04-18T20:34:47.828Z,101846.28
2024-04-18T20:37:16.830Z,101839.34
2024-04-18T20:39:43.684Z,101837.63
2024-04-18T20:42:14.001Z,101828.97
2024-04-18T20:44:42.959Z,101828.09
2024-04-18T20:47:12.148Z,101810.53
2024-04-18T20:49:40.926Z,101805.34
2024-04-18T20:52:07.562Z,101808.91
2024-04-18T20:54:36.631Z,101809.75
2024-04-18T20:57:03.452Z,101813.22
2024-04-18T20:59:30.393Z,101813.22
2024-04-18T21:01:58.123Z,101804.47
2024-04-18T21:04:24.827Z,101800.16
2024-04-18T21:06:51.641Z,101801.94
2024-04-18T21:09:20.762Z,101799.38
2024-04-18T21:11:47.421Z,101801.22
2024-04-18T21:14:16.268Z,101795.13
2024-04-18T21:16:44.240Z,101789.00
2024-04-18T21:19:16.032Z,101794.25
2024-04-18T21:21:44.952Z,101788.16
2024-04-18T21:24:11.810Z,101794.34
2024-04-18T21:26:38.479Z,101790.00
2024-04-18T21:29:07.438Z,101791.72
2024-04-18T21:31:36.429Z,101789.09
2024-04-18T21:34:07.445Z,101769.81
2024-04-18T21:36:36.904Z,101773.28
2024-04-18T21:39:07.103Z,101763.69
2024-04-18T21:41:39.495Z,101765.47
2024-04-18T21:44:06.485Z,101762.84
2024-04-18T21:46:35.919Z,101758.44
2024-04-18T21:49:02.709Z,101745.19
2024-04-18T21:51:29.531Z,101739.00
2024-04-18T21:53:56.224Z,101737.28
2024-04-18T21:56:25.124Z,101732.78
2024-04-18T21:58:53.360Z,101717.00
2024-04-18T22:01:22.900Z,101709.09
2024-04-18T22:03:51.573Z,101704.69
2024-04-18T22:06:22.839Z,101693.25
2024-04-18T22:08:54.696Z,101691.47
2024-04-18T22:11:21.286Z,101685.38
2024-04-18T22:13:50.514Z,101680.94
2024-04-18T22:16:17.148Z,101674.75
2024-04-18T22:18:43.855Z,101660.75
2024-04-18T22:21:10.577Z,101660.81
2024-04-18T22:23:37.222Z,101663.47
2024-04-18T22:26:04.513Z,101656.56
2024-04-18T22:28:31.099Z,101658.44
2024-04-18T22:31:00.263Z,101646.44
2024-04-18T22:33:31.980Z,101645.72
2024-04-18T22:35:58.857Z,101638.84
2024-04-18T22:38:27.920Z,101640.03
2024-04-18T22:40:56.757Z,101634.91
2024-04-18T22:43:23.491Z,101632.44
2024-04-18T22:45:55.023Z,101629.06
2024-04-18T22:48:24.197Z,101617.81
2024-04-18T22:50:55.635Z,101605.69
2024-04-18T22:53:22.260Z,101586.56
2024-04-18T22:55:55.237Z,101587.41
2024-04-18T22:58:21.990Z,101576.22
2024-04-18T23:00:49.141Z,101574.59
2024-04-18T23:03:20.553Z,101571.09
2024-04-18T23:05:50.197Z,101558.97
2024-04-18T23:08:19.271Z,101558.13
2024-04-18T23:10:47.878Z,101547.63
2024-04-18T23:13:15.253Z,101549.31
2024-04-18T23:15:42.029Z,101540.56
2024-04-18T23:18:13.478Z,101531.88
2024-04-18T23:20:40.246Z,101525.88
2024-04-18T23:23:06.859Z,101523.25
2024-04-18T23:25:38.004Z,101522.31
2024-04-18T23:28:04.934Z,101517.97
2024-04-18T23:30:31.684Z,101511.03
2024-04-18T23:33:00.863Z,101508.41
2024-04-18T23:35:27.469Z,101501.34
2024-04-18T23:37:56.366Z,101489.06
2024-04-18T23:40:22.979Z,101489.06
2024-04-18T23:42:49.668Z,101488.03
2024-04-18T23:45:16.469Z,101480.22
2024-04-18T23:47:45.558Z,101478.41
2024-04-18T23:50:14.497Z,101480.16
2024-04-18T23:52:41.110Z,101473.97
2024-04-18T23:55:07.706Z,101468.72
2024-04-18T23:57:34.373Z,101459.97
